sensor_id;sensor_type;location;lat;lon;timestamp;temperature;humidity
20081;DHT22;10200;49.232;9.222;2023-04-29T00:00:40;12.50;99.90
20081;DHT22;10200;49.232;9.222;2023-04-29T00:03:05;12.40;99.90
20081;DHT22;10200;49.232;9.222;2023-04-29T00:05:32;12.40;99.90
20081;DHT22;10200;49.232;9.222;2023-04-29T00:07:58;12.30;99.90
20081;DHT22;10200;49.232;9.222;2023-04-29T00:10:23;12.30;99.90
20081;DHT22;10200;49.232;9.222;2023-04-29T00:12:49;12.30;99.90
20081;DHT22;10200;49.232;9.222;2023-04-29T00:15:16;12.30;99.90
20081;DHT22;10200;49.232;9.222;2023-04-29T00:17:41;12.30;99.90
20081;DHT22;10200;49.232;9.222;2023-04-29T00:20:07;12.30;99.90
20081;DHT22;10200;49.232;9.222;2023-04-29T00:22:33;12.20;99.90
20081;DHT22;10200;49.232;9.222;2023-04-29T00:24:59;12.20;99.90
20081;DHT22;10200;49.232;9.222;2023-04-29T00:27:25;12.30;99.90
20081;DHT22;10200;49.232;9.222;2023-04-29T00:29:50;12.30;99.90
20081;DHT22;10200;49.232;9.222;2023-04-29T00:32:16;12.20;99.90
20081;DHT22;10200;49.232;9.222;2023-04-29T00:34:42;12.20;99.90
20081;DHT22;10200;49.232;9.222;2023-04-29T00:37:07;12.30;99.90
20081;DHT22;10200;49.232;9.222;2023-04-29T00:39:33;12.20;99.90
20081;DHT22;10200;49.232;9.222;2023-04-29T00:41:59;12.20;99.90
20081;DHT22;10200;49.232;9.222;2023-04-29T00:44:24;12.10;99.90
20081;DHT22;10200;49.232;9.222;2023-04-29T00:46:50;12.20;99.90
20081;DHT22;10200;49.232;9.222;2023-04-29T00:49:16;12.20;99.90
20081;DHT22;10200;49.232;9.222;2023-04-29T00:51:41;12.10;99.90
20081;DHT22;10200;49.232;9.222;2023-04-29T00:54:09;12.10;99.90
20081;DHT22;10200;49.232;9.222;2023-04-29T00:56:36;12.00;99.90
20081;DHT22;10200;49.232;9.222;2023-04-29T00:59:03;12.10;99.90
20081;DHT22;10200;49.232;9.222;2023-04-29T01:01:30;12.10;99.90
20081;DHT22;10200;49.232;9.222;2023-04-29T01:03:56;12.10;99.90
20081;DHT22;10200;49.232;9.222;2023-04-29T01:07:06;12.10;99.90
20081;DHT22;10200;49.232;9.222;2023-04-29T01:15:11;12.10;99.90
20081;DHT22;10200;49.232;9.222;2023-04-29T01:17:42;12.10;99.90
20081;DHT22;10200;49.232;9.222;2023-04-29T01:20:09;12.10;99.90
20081;DHT22;10200;49.232;9.222;2023-04-29T01:22:35;12.20;99.90
20081;DHT22;10200;49.232;9.222;2023-04-29T01:25:01;12.20;99.90
20081;DHT22;10200;49.232;9.222;2023-04-29T01:27:36;12.20;99.90
20081;DHT22;10200;49.232;9.222;2023-04-29T01:32:45;12.20;99.90
20081;DHT22;10200;49.232;9.222;2023-04-29T01:38:33;12.10;99.90
20081;DHT22;10200;49.232;9.222;2023-04-29T01:41:13;12.20;99.90
20081;DHT22;10200;49.232;9.222;2023-04-29T01:43:40;12.20;99.90
20081;DHT22;10200;49.232;9.222;2023-04-29T01:46:08;12.20;99.90
20081;DHT22;10200;49.232;9.222;2023-04-29T01:48:35;12.10;99.90
20081;DHT22;10200;49.232;9.222;2023-04-29T01:51:01;12.10;99.90
20081;DHT22;10200;49.232;9.222;2023-04-29T01:53:27;12.10;99.90
20081;DHT22;10200;49.232;9.222;2023-04-29T01:55:53;12.10;99.90
20081;DHT22;10200;49.232;9.222;2023-04-29T01:58:18;12.10;99.90
20081;DHT22;10200;49.232;9.222;2023-04-29T02:00:44;12.10;99.90
20081;DHT22;10200;49.232;9.222;2023-04-29T02:03:10;12.10;99.90
20081;DHT22;10200;49.232;9.222;2023-04-29T02:05:36;12.10;99.90
20081;DHT22;10200;49.232;9.222;2023-04-29T02:08:02;12.10;99.90
20081;DHT22;10200;49.232;9.222;2023-04-29T02:10:27;12.20;99.90
20081;DHT22;10200;49.232;9.222;2023-04-29T02:12:53;12.20;99.90
20081;DHT22;10200;49.232;9.222;2023-04-29T02:15:19;12.20;99.90
20081;DHT22;10200;49.232;9.222;2023-04-29T02:17:45;12.30;99.90
20081;DHT22;10200;49.232;9.222;2023-04-29T02:20:11;12.30;99.90
20081;DHT22;10200;49.232;9.222;2023-04-29T02:22:37;12.30;99.90
20081;DHT22;10200;49.232;9.222;2023-04-29T02:25:04;12.30;99.90
20081;DHT22;10200;49.232;9.222;2023-04-29T02:27:30;12.40;99.90
20081;DHT22;10200;49.232;9.222;2023-04-29T02:29:56;12.40;99.90
20081;DHT22;10200;49.232;9.222;2023-04-29T02:32:21;12.40;99.90
20081;DHT22;10200;49.232;9.222;2023-04-29T02:34:47;12.40;99.90
20081;DHT22;10200;49.232;9.222;2023-04-29T02:37:13;12.50;99.90
20081;DHT22;10200;49.232;9.222;2023-04-29T02:39:40;12.40;99.90
20081;DHT22;10200;49.232;9.222;2023-04-29T02:42:06;12.50;99.90
20081;DHT22;10200;49.232;9.222;2023-04-29T02:44:32;12.50;99.90
20081;DHT22;10200;49.232;9.222;2023-04-29T02:46:57;12.40;99.90
20081;DHT22;10200;49.232;9.222;2023-04-29T02:49:23;12.40;99.90
20081;DHT22;10200;49.232;9.222;2023-04-29T02:51:48;12.40;99.90
20081;DHT22;10200;49.232;9.222;2023-04-29T02:54:15;12.40;99.90
20081;DHT22;10200;49.232;9.222;2023-04-29T02:56:41;12.30;99.90
20081;DHT22;10200;49.232;9.222;2023-04-29T02:59:07;12.30;99.90
20081;DHT22;10200;49.232;9.222;2023-04-29T03:01:32;12.30;99.90
20081;DHT22;10200;49.232;9.222;2023-04-29T03:03:58;12.30;99.90
20081;DHT22;10200;49.232;9.222;2023-04-29T03:06:24;12.30;99.90
20081;DHT22;10200;49.232;9.222;2023-04-29T03:08:50;12.20;99.90
20081;DHT22;10200;49.232;9.222;2023-04-29T03:11:16;12.20;99.90
20081;DHT22;10200;49.232;9.222;2023-04-29T03:13:42;12.30;99.90
20081;DHT22;10200;49.232;9.222;2023-04-29T03:16:08;12.30;99.90
20081;DHT22;10200;49.232;9.222;2023-04-29T03:18:34;12.30;99.90
20081;DHT22;10200;49.232;9.222;2023-04-29T03:20:59;12.30;99.90
20081;DHT22;10200;49.232;9.222;2023-04-29T03:23:25;12.30;99.90
20081;DHT22;10200;49.232;9.222;2023-04-29T03:25:51;12.30;99.90
20081;DHT22;10200;49.232;9.222;2023-04-29T03:28:17;12.30;99.90
20081;DHT22;10200;49.232;9.222;2023-04-29T03:30:42;12.30;99.90
20081;DHT22;10200;49.232;9.222;2023-04-29T03:33:08;12.30;99.90
20081;DHT22;10200;49.232;9.222;2023-04-29T03:35:34;12.30;99.90
20081;DHT22;10200;49.232;9.222;2023-04-29T03:37:59;12.40;99.90
20081;DHT22;10200;49.232;9.222;2023-04-29T03:40:25;12.50;99.90
20081;DHT22;10200;49.232;9.222;2023-04-29T03:42:51;12.40;99.90
20081;DHT22;10200;49.232;9.222;2023-04-29T03:45:16;12.50;99.90
20081;DHT22;10200;49.232;9.222;2023-04-29T03:47:42;12.50;99.90
20081;DHT22;10200;49.232;9.222;2023-04-29T03:50:08;12.50;99.90
20081;DHT22;10200;49.232;9.222;2023-04-29T03:52:34;12.60;99.90
20081;DHT22;10200;49.232;9.222;2023-04-29T03:55:01;12.60;99.90
20081;DHT22;10200;49.232;9.222;2023-04-29T03:57:27;12.60;99.90
20081;DHT22;10200;49.232;9.222;2023-04-29T03:59:53;12.60;99.90
20081;DHT22;10200;49.232;9.222;2023-04-29T04:02:18;12.60;99.90
20081;DHT22;10200;49.232;9.222;2023-04-29T04:04:44;12.60;99.90
20081;DHT22;10200;49.232;9.222;2023-04-29T04:07:10;12.60;99.90
20081;DHT22;10200;49.232;9.222;2023-04-29T04:09:36;12.50;99.90
20081;DHT22;10200;49.232;9.222;2023-04-29T04:12:02;12.40;99.90
20081;DHT22;10200;49.232;9.222;2023-04-29T04:14:28;12.40;99.90
20081;DHT22;10200;49.232;9.222;2023-04-29T04:16:54;12.40;99.90
20081;DHT22;10200;49.232;9.222;2023-04-29T04:19:20;12.40;99.90
20081;DHT22;10200;49.232;9.222;2023-04-29T04:21:46;12.40;99.90
20081;DHT22;10200;49.232;9.222;2023-04-29T04:24:11;12.50;99.90
20081;DHT22;10200;49.232;9.222;2023-04-29T04:26:37;12.60;99.90
20081;DHT22;10200;49.232;9.222;2023-04-29T04:29:02;12.70;99.90
20081;DHT22;10200;49.232;9.222;2023-04-29T04:31:29;12.80;99.90
20081;DHT22;10200;49.232;9.222;2023-04-29T04:33:55;12.80;99.90
20081;DHT22;10200;49.232;9.222;2023-04-29T04:36:21;12.90;99.90
20081;DHT22;10200;49.232;9.222;2023-04-29T04:38:46;13.00;99.90
20081;DHT22;10200;49.232;9.222;2023-04-29T04:41:12;13.00;99.90
20081;DHT22;10200;49.232;9.222;2023-04-29T04:43:37;13.10;99.90
20081;DHT22;10200;49.232;9.222;2023-04-29T04:46:12;13.20;99.90
20081;DHT22;10200;49.232;9.222;2023-04-29T04:48:38;13.20;99.90
20081;DHT22;10200;49.232;9.222;2023-04-29T04:51:11;13.30;99.90
20081;DHT22;10200;49.232;9.222;2023-04-29T04:53:38;13.40;99.90
20081;DHT22;10200;49.232;9.222;2023-04-29T04:56:04;13.40;99.90
20081;DHT22;10200;49.232;9.222;2023-04-29T04:58:30;13.50;99.90
20081;DHT22;10200;49.232;9.222;2023-04-29T05:00:57;13.50;99.90
20081;DHT22;10200;49.232;9.222;2023-04-29T05:03:23;13.50;99.90
20081;DHT22;10200;49.232;9.222;2023-04-29T05:05:59;13.50;99.90
20081;DHT22;10200;49.232;9.222;2023-04-29T05:08:25;13.60;99.90
20081;DHT22;10200;49.232;9.222;2023-04-29T05:10:51;13.60;99.90
20081;DHT22;10200;49.232;9.222;2023-04-29T05:13:17;13.70;99.90
20081;DHT22;10200;49.232;9.222;2023-04-29T05:15:44;13.80;99.90
20081;DHT22;10200;49.232;9.222;2023-04-29T05:18:10;14.00;99.90
20081;DHT22;10200;49.232;9.222;2023-04-29T05:20:36;14.00;99.90
20081;DHT22;10200;49.232;9.222;2023-04-29T05:23:02;14.10;99.90
20081;DHT22;10200;49.232;9.222;2023-04-29T05:25:28;14.10;99.90
20081;DHT22;10200;49.232;9.222;2023-04-29T05:27:54;14.10;99.90
20081;DHT22;10200;49.232;9.222;2023-04-29T05:30:19;14.10;99.90
20081;DHT22;10200;49.232;9.222;2023-04-29T05:32:45;14.10;99.90
20081;DHT22;10200;49.232;9.222;2023-04-29T05:35:11;14.20;99.90
20081;DHT22;10200;49.232;9.222;2023-04-29T05:37:37;14.20;99.90
20081;DHT22;10200;49.232;9.222;2023-04-29T05:40:03;14.20;99.90
20081;DHT22;10200;49.232;9.222;2023-04-29T05:42:29;14.20;99.90
20081;DHT22;10200;49.232;9.222;2023-04-29T05:44:55;14.20;99.90
20081;DHT22;10200;49.232;9.222;2023-04-29T05:47:20;14.30;99.90
20081;DHT22;10200;49.232;9.222;2023-04-29T05:49:47;14.30;99.90
20081;DHT22;10200;49.232;9.222;2023-04-29T05:52:12;14.40;99.90
20081;DHT22;10200;49.232;9.222;2023-04-29T05:54:38;14.40;99.90
20081;DHT22;10200;49.232;9.222;2023-04-29T05:57:03;14.50;99.90
20081;DHT22;10200;49.232;9.222;2023-04-29T05:59:30;14.50;99.90
20081;DHT22;10200;49.232;9.222;2023-04-29T06:01:56;14.60;99.90
20081;DHT22;10200;49.232;9.222;2023-04-29T06:04:22;14.70;99.90
20081;DHT22;10200;49.232;9.222;2023-04-29T06:06:49;14.90;99.90
20081;DHT22;10200;49.232;9.222;2023-04-29T06:09:15;15.00;99.90
20081;DHT22;10200;49.232;9.222;2023-04-29T06:11:41;15.10;99.90
20081;DHT22;10200;49.232;9.222;2023-04-29T06:14:06;15.30;99.90
20081;DHT22;10200;49.232;9.222;2023-04-29T06:16:32;15.40;99.90
20081;DHT22;10200;49.232;9.222;2023-04-29T06:18:58;15.40;99.90
20081;DHT22;10200;49.232;9.222;2023-04-29T06:21:24;15.50;99.90
20081;DHT22;10200;49.232;9.222;2023-04-29T06:23:52;15.40;99.90
20081;DHT22;10200;49.232;9.222;2023-04-29T06:26:18;15.50;99.90
20081;DHT22;10200;49.232;9.222;2023-04-29T06:28:45;15.60;99.90
20081;DHT22;10200;49.232;9.222;2023-04-29T06:31:11;15.90;99.90
20081;DHT22;10200;49.232;9.222;2023-04-29T06:33:37;16.40;99.90
20081;DHT22;10200;49.232;9.222;2023-04-29T06:36:02;16.50;99.90
20081;DHT22;10200;49.232;9.222;2023-04-29T06:38:29;16.40;99.90
20081;DHT22;10200;49.232;9.222;2023-04-29T06:40:55;16.40;99.90
20081;DHT22;10200;49.232;9.222;2023-04-29T06:43:27;16.30;99.90
20081;DHT22;10200;49.232;9.222;2023-04-29T06:45:53;16.40;99.90
20081;DHT22;10200;49.232;9.222;2023-04-29T06:48:18;16.60;99.90
20081;DHT22;10200;49.232;9.222;2023-04-29T06:50:51;16.60;99.90
20081;DHT22;10200;49.232;9.222;2023-04-29T06:53:17;16.70;99.90
20081;DHT22;10200;49.232;9.222;2023-04-29T06:55:43;17.40;99.90
20081;DHT22;10200;49.232;9.222;2023-04-29T06:58:14;18.20;99.90
20081;DHT22;10200;49.232;9.222;2023-04-29T07:00:43;18.30;99.90
20081;DHT22;10200;49.232;9.222;2023-04-29T07:05:37;18.90;99.90
20081;DHT22;10200;49.232;9.222;2023-04-29T07:08:07;19.30;99.90
20081;DHT22;10200;49.232;9.222;2023-04-29T07:10:34;19.60;99.90
20081;DHT22;10200;49.232;9.222;2023-04-29T07:13:00;19.60;98.10
20081;DHT22;10200;49.232;9.222;2023-04-29T07:15:26;19.40;97.30
20081;DHT22;10200;49.232;9.222;2023-04-29T07:17:52;19.30;95.40
20081;DHT22;10200;49.232;9.222;2023-04-29T07:20:18;19.10;94.60
20081;DHT22;10200;49.232;9.222;2023-04-29T07:22:44;19.00;95.20
20081;DHT22;10200;49.232;9.222;2023-04-29T07:25:10;18.90;94.90
20081;DHT22;10200;49.232;9.222;2023-04-29T07:27:36;18.70;94.70
20081;DHT22;10200;49.232;9.222;2023-04-29T07:30:02;18.50;95.10
20081;DHT22;10200;49.232;9.222;2023-04-29T07:32:28;18.60;97.10
20081;DHT22;10200;49.232;9.222;2023-04-29T07:34:56;18.50;96.40
20081;DHT22;10200;49.232;9.222;2023-04-29T07:37:22;18.40;96.10
20081;DHT22;10200;49.232;9.222;2023-04-29T07:39:47;18.30;96.70
20081;DHT22;10200;49.232;9.222;2023-04-29T07:42:13;18.20;97.20
20081;DHT22;10200;49.232;9.222;2023-04-29T07:44:38;18.10;96.50
20081;DHT22;10200;49.232;9.222;2023-04-29T07:47:04;18.00;97.10
20081;DHT22;10200;49.232;9.222;2023-04-29T07:49:30;17.80;97.50
20081;DHT22;10200;49.232;9.222;2023-04-29T07:51:56;17.70;98.40
20081;DHT22;10200;49.232;9.222;2023-04-29T07:54:21;17.50;98.80
20081;DHT22;10200;49.232;9.222;2023-04-29T07:56:48;17.40;99.90
20081;DHT22;10200;49.232;9.222;2023-04-29T07:59:14;17.50;99.90
20081;DHT22;10200;49.232;9.222;2023-04-29T08:01:40;17.60;99.90
20081;DHT22;10200;49.232;9.222;2023-04-29T08:04:06;17.70;99.90
20081;DHT22;10200;49.232;9.222;2023-04-29T08:06:32;17.70;99.90
20081;DHT22;10200;49.232;9.222;2023-04-29T08:08:58;17.70;99.90
20081;DHT22;10200;49.232;9.222;2023-04-29T08:11:24;17.60;99.90
20081;DHT22;10200;49.232;9.222;2023-04-29T08:13:51;17.50;99.90
20081;DHT22;10200;49.232;9.222;2023-04-29T08:16:16;17.40;99.90
20081;DHT22;10200;49.232;9.222;2023-04-29T08:18:42;17.20;99.90
20081;DHT22;10200;49.232;9.222;2023-04-29T08:21:08;17.20;99.90
20081;DHT22;10200;49.232;9.222;2023-04-29T08:23:36;17.20;99.90
20081;DHT22;10200;49.232;9.222;2023-04-29T08:26:02;17.20;99.90
20081;DHT22;10200;49.232;9.222;2023-04-29T08:28:28;17.20;99.90
20081;DHT22;10200;49.232;9.222;2023-04-29T08:30:53;17.20;99.90
20081;DHT22;10200;49.232;9.222;2023-04-29T08:33:19;17.20;99.90
20081;DHT22;10200;49.232;9.222;2023-04-29T08:35:45;17.10;99.90
20081;DHT22;10200;49.232;9.222;2023-04-29T08:38:11;17.10;99.90
20081;DHT22;10200;49.232;9.222;2023-04-29T08:43:12;17.10;99.90
20081;DHT22;10200;49.232;9.222;2023-04-29T08:45:40;17.10;99.90
20081;DHT22;10200;49.232;9.222;2023-04-29T08:48:06;17.00;99.90
20081;DHT22;10200;49.232;9.222;2023-04-29T08:50:39;17.10;99.90
20081;DHT22;10200;49.232;9.222;2023-04-29T08:53:09;17.20;99.90
20081;DHT22;10200;49.232;9.222;2023-04-29T08:55:39;17.30;99.90
20081;DHT22;10200;49.232;9.222;2023-04-29T08:58:06;17.40;99.90
20081;DHT22;10200;49.232;9.222;2023-04-29T09:00:33;17.40;99.90
20081;DHT22;10200;49.232;9.222;2023-04-29T09:03:01;17.20;99.90
20081;DHT22;10200;49.232;9.222;2023-04-29T09:05:29;17.20;99.90
20081;DHT22;10200;49.232;9.222;2023-04-29T09:07:56;17.10;99.90
20081;DHT22;10200;49.232;9.222;2023-04-29T09:10:24;17.00;99.90
20081;DHT22;10200;49.232;9.222;2023-04-29T09:12:50;17.00;99.90
20081;DHT22;10200;49.232;9.222;2023-04-29T09:15:16;17.10;99.90
20081;DHT22;10200;49.232;9.222;2023-04-29T09:17:46;17.60;99.90
20081;DHT22;10200;49.232;9.222;2023-04-29T09:22:48;18.20;99.90
20081;DHT22;10200;49.232;9.222;2023-04-29T09:25:15;18.30;99.90
20081;DHT22;10200;49.232;9.222;2023-04-29T09:27:40;18.30;97.60
20081;DHT22;10200;49.232;9.222;2023-04-29T09:30:07;18.20;96.60
20081;DHT22;10200;49.232;9.222;2023-04-29T09:32:33;18.10;96.40
20081;DHT22;10200;49.232;9.222;2023-04-29T09:35:25;17.90;96.20
20081;DHT22;10200;49.232;9.222;2023-04-29T09:38:15;17.80;97.00
20081;DHT22;10200;49.232;9.222;2023-04-29T09:40:42;17.70;97.50
20081;DHT22;10200;49.232;9.222;2023-04-29T09:43:16;17.70;97.30
20081;DHT22;10200;49.232;9.222;2023-04-29T09:45:47;17.60;97.80
20081;DHT22;10200;49.232;9.222;2023-04-29T09:48:14;17.60;97.00
20081;DHT22;10200;49.232;9.222;2023-04-29T09:50:42;17.70;97.70
20081;DHT22;10200;49.232;9.222;2023-04-29T09:53:10;17.90;98.20
20081;DHT22;10200;49.232;9.222;2023-04-29T09:55:57;17.90;97.10
20081;DHT22;10200;49.232;9.222;2023-04-29T09:58:29;18.00;97.10
20081;DHT22;10200;49.232;9.222;2023-04-29T10:00:58;18.20;96.80
20081;DHT22;10200;49.232;9.222;2023-04-29T10:03:32;18.20;95.90
20081;DHT22;10200;49.232;9.222;2023-04-29T10:05:59;18.20;95.80
20081;DHT22;10200;49.232;9.222;2023-04-29T10:08:26;18.20;94.80
20081;DHT22;10200;49.232;9.222;2023-04-29T10:10:54;18.10;93.60
20081;DHT22;10200;49.232;9.222;2023-04-29T10:13:26;18.10;93.60
20081;DHT22;10200;49.232;9.222;2023-04-29T10:16:00;18.00;93.50
20081;DHT22;10200;49.232;9.222;2023-04-29T10:18:36;18.00;93.50
20081;DHT22;10200;49.232;9.222;2023-04-29T10:21:03;17.90;93.20
20081;DHT22;10200;49.232;9.222;2023-04-29T10:23:32;17.90;93.10
20081;DHT22;10200;49.232;9.222;2023-04-29T10:25:58;17.70;92.80
20081;DHT22;10200;49.232;9.222;2023-04-29T10:28:25;17.70;92.90
20081;DHT22;10200;49.232;9.222;2023-04-29T10:30:53;17.70;92.90
20081;DHT22;10200;49.232;9.222;2023-04-29T10:33:19;17.60;92.90
20081;DHT22;10200;49.232;9.222;2023-04-29T10:35:47;17.60;92.90
20081;DHT22;10200;49.232;9.222;2023-04-29T10:40:51;17.50;92.80
20081;DHT22;10200;49.232;9.222;2023-04-29T10:43:27;17.50;92.70
20081;DHT22;10200;49.232;9.222;2023-04-29T10:48:45;17.50;93.00
20081;DHT22;10200;49.232;9.222;2023-04-29T10:51:11;17.70;93.20
20081;DHT22;10200;49.232;9.222;2023-04-29T10:56:47;17.60;92.10
20081;DHT22;10200;49.232;9.222;2023-04-29T10:59:15;17.70;92.60
20081;DHT22;10200;49.232;9.222;2023-04-29T11:01:45;17.80;92.40
20081;DHT22;10200;49.232;9.222;2023-04-29T11:04:11;17.80;92.30
20081;DHT22;10200;49.232;9.222;2023-04-29T11:06:38;17.90;92.10
20081;DHT22;10200;49.232;9.222;2023-04-29T11:11:57;17.90;91.40
20081;DHT22;10200;49.232;9.222;2023-04-29T11:17:09;17.90;91.60
20081;DHT22;10200;49.232;9.222;2023-04-29T11:19:39;17.90;91.50
20081;DHT22;10200;49.232;9.222;2023-04-29T11:27:26;17.80;91.30
20081;DHT22;10200;49.232;9.222;2023-04-29T11:29:57;17.80;91.10
20081;DHT22;10200;49.232;9.222;2023-04-29T11:32:27;17.80;91.40
20081;DHT22;10200;49.232;9.222;2023-04-29T11:34:54;17.80;90.90
20081;DHT22;10200;49.232;9.222;2023-04-29T11:37:24;17.90;91.70
20081;DHT22;10200;49.232;9.222;2023-04-29T11:39:50;18.00;91.30
20081;DHT22;10200;49.232;9.222;2023-04-29T11:42:20;18.00;90.80
20081;DHT22;10200;49.232;9.222;2023-04-29T11:44:46;18.10;90.70
20081;DHT22;10200;49.232;9.222;2023-04-29T11:47:15;18.30;90.70
20081;DHT22;10200;49.232;9.222;2023-04-29T11:49:40;18.40;90.20
20081;DHT22;10200;49.232;9.222;2023-04-29T11:52:07;18.50;89.70
20081;DHT22;10200;49.232;9.222;2023-04-29T11:54:34;18.50;88.10
20081;DHT22;10200;49.232;9.222;2023-04-29T11:56:59;18.50;88.40
20081;DHT22;10200;49.232;9.222;2023-04-29T11:59:30;18.40;87.70
20081;DHT22;10200;49.232;9.222;2023-04-29T12:01:57;18.40;87.70
20081;DHT22;10200;49.232;9.222;2023-04-29T12:04:23;18.30;88.20
20081;DHT22;10200;49.232;9.222;2023-04-29T12:06:52;18.20;88.00
20081;DHT22;10200;49.232;9.222;2023-04-29T12:09:18;18.20;89.60
20081;DHT22;10200;49.232;9.222;2023-04-29T12:11:44;18.20;89.50
20081;DHT22;10200;49.232;9.222;2023-04-29T12:14:12;18.40;89.90
20081;DHT22;10200;49.232;9.222;2023-04-29T12:16:38;18.50;88.80
20081;DHT22;10200;49.232;9.222;2023-04-29T12:19:04;18.60;88.30
20081;DHT22;10200;49.232;9.222;2023-04-29T12:21:32;18.70;87.60
20081;DHT22;10200;49.232;9.222;2023-04-29T12:23:58;18.80;86.80
20081;DHT22;10200;49.232;9.222;2023-04-29T12:26:29;18.70;85.40
20081;DHT22;10200;49.232;9.222;2023-04-29T12:28:58;18.80;86.30
20081;DHT22;10200;49.232;9.222;2023-04-29T12:31:32;18.70;84.60
20081;DHT22;10200;49.232;9.222;2023-04-29T12:33:58;18.60;84.10
20081;DHT22;10200;49.232;9.222;2023-04-29T12:36:24;18.60;84.60
20081;DHT22;10200;49.232;9.222;2023-04-29T12:38:51;18.50;85.70
20081;DHT22;10200;49.232;9.222;2023-04-29T12:41:19;18.50;84.40
20081;DHT22;10200;49.232;9.222;2023-04-29T12:43:45;18.50;84.10
20081;DHT22;10200;49.232;9.222;2023-04-29T12:46:14;18.40;84.90
20081;DHT22;10200;49.232;9.222;2023-04-29T12:48:40;18.40;84.50
20081;DHT22;10200;49.232;9.222;2023-04-29T12:51:09;18.30;85.10
20081;DHT22;10200;49.232;9.222;2023-04-29T12:53:35;18.40;84.60
20081;DHT22;10200;49.232;9.222;2023-04-29T12:56:01;18.40;84.80
20081;DHT22;10200;49.232;9.222;2023-04-29T12:58:30;18.40;83.80
20081;DHT22;10200;49.232;9.222;2023-04-29T13:00:57;18.40;83.70
20081;DHT22;10200;49.232;9.222;2023-04-29T13:03:23;18.50;83.60
20081;DHT22;10200;49.232;9.222;2023-04-29T13:05:49;18.60;84.00
20081;DHT22;10200;49.232;9.222;2023-04-29T13:08:18;18.70;83.70
20081;DHT22;10200;49.232;9.222;2023-04-29T13:10:44;18.70;83.50
20081;DHT22;10200;49.232;9.222;2023-04-29T13:13:09;18.70;81.90
20081;DHT22;10200;49.232;9.222;2023-04-29T13:15:36;18.70;82.00
20081;DHT22;10200;49.232;9.222;2023-04-29T13:18:03;18.70;81.20
20081;DHT22;10200;49.232;9.222;2023-04-29T13:20:29;18.60;81.90
20081;DHT22;10200;49.232;9.222;2023-04-29T13:22:55;18.60;81.70
20081;DHT22;10200;49.232;9.222;2023-04-29T13:25:21;18.50;81.40
20081;DHT22;10200;49.232;9.222;2023-04-29T13:27:46;18.40;81.10
20081;DHT22;10200;49.232;9.222;2023-04-29T13:30:12;18.30;81.20
20081;DHT22;10200;49.232;9.222;2023-04-29T13:32:38;18.20;81.00
20081;DHT22;10200;49.232;9.222;2023-04-29T13:35:05;18.10;81.80
20081;DHT22;10200;49.232;9.222;2023-04-29T13:37:31;17.90;82.70
20081;DHT22;10200;49.232;9.222;2023-04-29T13:39:57;17.70;82.50
20081;DHT22;10200;49.232;9.222;2023-04-29T13:42:22;17.60;83.20
20081;DHT22;10200;49.232;9.222;2023-04-29T13:44:48;17.40;83.10
20081;DHT22;10200;49.232;9.222;2023-04-29T13:47:15;17.30;85.00
20081;DHT22;10200;49.232;9.222;2023-04-29T13:49:42;17.20;86.20
20081;DHT22;10200;49.232;9.222;2023-04-29T13:52:11;17.20;86.30
20081;DHT22;10200;49.232;9.222;2023-04-29T13:54:37;17.10;86.00
20081;DHT22;10200;49.232;9.222;2023-04-29T13:57:03;17.10;86.90
20081;DHT22;10200;49.232;9.222;2023-04-29T13:59:30;17.10;86.90
20081;DHT22;10200;49.232;9.222;2023-04-29T14:01:57;17.10;87.50
20081;DHT22;10200;49.232;9.222;2023-04-29T14:04:23;17.10;87.70
20081;DHT22;10200;49.232;9.222;2023-04-29T14:06:49;17.10;87.20
20081;DHT22;10200;49.232;9.222;2023-04-29T14:09:15;17.10;88.10
20081;DHT22;10200;49.232;9.222;2023-04-29T14:11:41;17.10;88.00
20081;DHT22;10200;49.232;9.222;2023-04-29T14:14:06;17.10;88.30
20081;DHT22;10200;49.232;9.222;2023-04-29T14:16:32;17.10;88.30
20081;DHT22;10200;49.232;9.222;2023-04-29T14:18:58;17.20;87.90
20081;DHT22;10200;49.232;9.222;2023-04-29T14:21:23;17.10;87.00
20081;DHT22;10200;49.232;9.222;2023-04-29T14:23:49;17.20;86.80
20081;DHT22;10200;49.232;9.222;2023-04-29T14:26:15;17.10;86.90
20081;DHT22;10200;49.232;9.222;2023-04-29T14:28:41;17.20;86.30
20081;DHT22;10200;49.232;9.222;2023-04-29T14:31:06;17.10;86.20
20081;DHT22;10200;49.232;9.222;2023-04-29T14:33:32;17.10;85.50
20081;DHT22;10200;49.232;9.222;2023-04-29T14:35:57;17.10;85.30
20081;DHT22;10200;49.232;9.222;2023-04-29T14:38:25;17.10;85.10
20081;DHT22;10200;49.232;9.222;2023-04-29T14:40:51;17.10;86.00
20081;DHT22;10200;49.232;9.222;2023-04-29T14:43:16;17.10;85.70
20081;DHT22;10200;49.232;9.222;2023-04-29T14:45:42;17.10;85.40
20081;DHT22;10200;49.232;9.222;2023-04-29T14:48:09;17.10;86.00
20081;DHT22;10200;49.232;9.222;2023-04-29T14:50:35;17.10;86.00
20081;DHT22;10200;49.232;9.222;2023-04-29T14:53:01;17.10;86.40
20081;DHT22;10200;49.232;9.222;2023-04-29T14:55:26;17.10;86.80
20081;DHT22;10200;49.232;9.222;2023-04-29T14:57:52;17.10;86.00
20081;DHT22;10200;49.232;9.222;2023-04-29T15:00:18;17.10;86.20
20081;DHT22;10200;49.232;9.222;2023-04-29T15:02:43;17.10;86.00
20081;DHT22;10200;49.232;9.222;2023-04-29T15:05:09;17.00;85.90
20081;DHT22;10200;49.232;9.222;2023-04-29T15:07:35;17.00;85.30
20081;DHT22;10200;49.232;9.222;2023-04-29T15:10:01;17.00;85.10
20081;DHT22;10200;49.232;9.222;2023-04-29T15:12:26;16.90;84.50
20081;DHT22;10200;49.232;9.222;2023-04-29T15:14:52;16.90;84.80
20081;DHT22;10200;49.232;9.222;2023-04-29T15:17:18;16.90;84.60
20081;DHT22;10200;49.232;9.222;2023-04-29T15:19:44;16.90;85.30
20081;DHT22;10200;49.232;9.222;2023-04-29T15:22:09;16.90;85.20
20081;DHT22;10200;49.232;9.222;2023-04-29T15:24:35;16.90;84.70
20081;DHT22;10200;49.232;9.222;2023-04-29T15:27:01;16.90;85.00
20081;DHT22;10200;49.232;9.222;2023-04-29T15:29:27;16.90;84.00
20081;DHT22;10200;49.232;9.222;2023-04-29T15:31:53;16.90;83.40
20081;DHT22;10200;49.232;9.222;2023-04-29T15:34:19;16.90;83.90
20081;DHT22;10200;49.232;9.222;2023-04-29T15:36:45;16.80;83.70
20081;DHT22;10200;49.232;9.222;2023-04-29T15:39:11;16.80;84.40
20081;DHT22;10200;49.232;9.222;2023-04-29T15:41:37;16.80;84.00
20081;DHT22;10200;49.232;9.222;2023-04-29T15:44:03;16.80;84.10
20081;DHT22;10200;49.232;9.222;2023-04-29T15:46:29;16.80;84.00
20081;DHT22;10200;49.232;9.222;2023-04-29T15:48:55;16.80;84.50
20081;DHT22;10200;49.232;9.222;2023-04-29T15:51:21;16.80;84.40
20081;DHT22;10200;49.232;9.222;2023-04-29T15:53:47;16.80;83.90
20081;DHT22;10200;49.232;9.222;2023-04-29T15:56:15;16.80;84.80
20081;DHT22;10200;49.232;9.222;2023-04-29T15:58:41;16.80;84.80
20081;DHT22;10200;49.232;9.222;2023-04-29T16:01:06;16.80;84.80
20081;DHT22;10200;49.232;9.222;2023-04-29T16:03:32;16.80;84.80
20081;DHT22;10200;49.232;9.222;2023-04-29T16:05:57;16.80;85.50